Terminal Aerodrome Forecast
Issued by NWS

Home | Current Version | Previous Version | Graphics & Text | Print | Product List | Glossary On
Versions: 1 2 3 4 5 6 7 8 9 10 11 12 13 14 15 16
285
FTUS43 KOAX 231725
TAFCDR
TAF
KCDR 231725Z 2318/2418 VRB03KT P6SM SCT060
     FM240200 03005KT 4SM -SHSN SCT007 OVC015
     FM240600 02005KT 2SM -SN BR OVC008=

USA.gov is the U.S. government's official web portal to all federal, state and local government web resources and services.